Decoded Metar for YPKG (KALGOORLIE in AUSTRALIA) (IATA:KGI) | Meteo·Mobile Aviation Weather
aviador You're here:

YPKG Decoded Metar

KALGOORLIE in AUSTRALIA
Report Time2019-02-16 01:00:00
UTC Time2019-02-16 02:11:00
Flight Rules Old
Wind170° at 07 kt
W.Decomp.*RWY 18: 6.9 kt HW 1.3 kt LCW
RWY 11: 3.6 kt HW 6.0 kt RCW
W.Rank170° ranks 23
Current wind is below 170° avg. (7.1)
Visibility9999 m
Phenomena:N/A
Clouds:N/A
Expected CloudBase > 3,600 ft AGL from Temp-Dew spread
CeilingNone
Temp24°C (ISA +11)
Dew Point15°C (57% RH)
AAT23.1°C
QNH1016 hPa
Density Alt2,625 ft
Elevation1,181 ft
Report Wrong Elevation
Raw Report
METAR YPKG 160100Z AUTO 17007KT 9999 // NCD 24/15 Q1016
RF00.0/000.0=

Extra information for YPKG:More info

Metar Taf Metar & Taf Last 4 Metars F.Rules Stats Wind Profile Meteogram Temp Stats Airport Information Weather charts Add Link Nearby VenuesMetar ALERT Operation Metar Decoded Social comments